createdAt,value
2023-03-18T00:00:45.536Z,9.80
2023-03-18T00:03:15.689Z,9.80
2023-03-18T00:05:43.888Z,9.90
2023-03-18T00:08:14.837Z,10.00
2023-03-18T00:10:42.964Z,10.00
2023-03-18T00:13:10.780Z,10.00
2023-03-18T00:15:38.581Z,10.00
2023-03-18T00:18:06.535Z,10.10
2023-03-18T00:20:39.430Z,10.20
2023-03-18T00:23:08.971Z,10.20
2023-03-18T00:25:37.871Z,10.30
2023-03-18T00:28:07.375Z,10.40
2023-03-18T00:30:36.683Z,10.50
2023-03-18T00:33:05.214Z,10.50
2023-03-18T00:35:33.596Z,10.50
2023-03-18T00:38:04.049Z,10.50
2023-03-18T00:40:43.224Z,10.60
2023-03-18T00:43:12.968Z,10.70
2023-03-18T00:45:42.681Z,10.70
2023-03-18T00:48:11.118Z,10.70
2023-03-18T00:50:38.988Z,10.80
2023-03-18T00:53:08.135Z,10.70
2023-03-18T00:55:36.104Z,10.60
2023-03-18T00:58:04.028Z,10.50
2023-03-18T01:00:32.050Z,10.60
2023-03-18T01:03:00.106Z,10.50
2023-03-18T01:05:27.894Z,10.50
2023-03-18T01:07:55.678Z,10.40
2023-03-18T01:10:25.578Z,10.40
2023-03-18T01:12:55.320Z,10.30
2023-03-18T01:15:24.001Z,10.40
2023-03-18T01:17:54.301Z,10.40
2023-03-18T01:20:23.636Z,10.30
2023-03-18T01:22:51.576Z,10.30
2023-03-18T01:25:20.318Z,10.20
2023-03-18T01:27:49.479Z,10.10
2023-03-18T01:30:17.833Z,10.10
2023-03-18T01:32:46.642Z,10.00
2023-03-18T01:35:14.523Z,9.90
2023-03-18T01:37:43.814Z,9.80
2023-03-18T01:40:13.419Z,9.80
2023-03-18T01:42:41.317Z,9.70
2023-03-18T01:45:19.457Z,9.70
2023-03-18T01:47:47.617Z,9.80
2023-03-18T01:50:18.598Z,9.80
2023-03-18T01:52:47.688Z,9.80
2023-03-18T01:55:20.096Z,9.90
2023-03-18T01:57:49.073Z,9.90
2023-03-18T02:00:21.563Z,10.00
2023-03-18T02:02:52.773Z,9.90
2023-03-18T02:05:23.573Z,9.80
2023-03-18T02:07:52.369Z,9.80
2023-03-18T02:10:23.914Z,9.80
2023-03-18T02:12:56.696Z,9.80
2023-03-18T02:15:27.636Z,9.70
2023-03-18T02:18:00.728Z,9.70
2023-03-18T02:20:42.164Z,9.60
2023-03-18T02:23:17.399Z,9.60
2023-03-18T02:25:53.067Z,9.60
2023-03-18T02:28:25.626Z,9.60
2023-03-18T02:30:57.098Z,9.60
2023-03-18T02:33:29.687Z,9.60
2023-03-18T02:36:03.148Z,9.60
2023-03-18T02:38:31.115Z,9.60
2023-03-18T02:40:59.394Z,9.60
2023-03-18T02:43:30.251Z,9.60
2023-03-18T02:46:22.380Z,9.60
2023-03-18T02:48:51.008Z,9.70
2023-03-18T02:51:20.930Z,9.80
2023-03-18T02:53:50.669Z,9.80
2023-03-18T02:56:18.571Z,9.90
2023-03-18T02:58:48.333Z,9.80
2023-03-18T03:01:17.569Z,9.70
2023-03-18T03:03:45.546Z,9.70
2023-03-18T03:06:13.591Z,9.60
2023-03-18T03:08:41.500Z,9.60
2023-03-18T03:11:10.163Z,9.60
2023-03-18T03:13:39.502Z,9.50
2023-03-18T03:16:09.455Z,9.50
2023-03-18T03:18:37.749Z,9.70
2023-03-18T03:21:06.445Z,9.50
2023-03-18T03:23:34.218Z,9.40
2023-03-18T03:26:02.441Z,9.40
2023-03-18T03:28:30.674Z,9.40
2023-03-18T03:30:59.100Z,9.30
2023-03-18T03:33:28.786Z,9.20
2023-03-18T03:35:58.110Z,9.20
2023-03-18T03:38:26.207Z,9.10
2023-03-18T03:40:54.636Z,9.10
2023-03-18T03:43:22.682Z,8.90
2023-03-18T03:45:50.704Z,8.80
2023-03-18T03:48:18.535Z,8.70
2023-03-18T03:50:47.922Z,8.70
2023-03-18T03:53:15.741Z,8.70
2023-03-18T03:55:44.352Z,8.60
2023-03-18T03:58:12.154Z,8.60
2023-03-18T04:00:39.957Z,8.50
2023-03-18T04:03:07.765Z,8.30
2023-03-18T04:05:35.677Z,8.20
2023-03-18T04:08:05.139Z,8.00
2023-03-18T04:10:34.708Z,8.00
2023-03-18T04:13:03.140Z,7.90
2023-03-18T04:15:31.019Z,7.70
2023-03-18T04:18:02.138Z,7.70
2023-03-18T04:20:30.389Z,7.60
2023-03-18T04:22:58.543Z,7.60
2023-03-18T04:25:27.720Z,7.60
2023-03-18T04:27:55.537Z,7.50
2023-03-18T04:30:25.388Z,7.50
2023-03-18T04:32:54.768Z,7.50
2023-03-18T04:35:23.284Z,7.40
2023-03-18T04:37:51.654Z,7.40
2023-03-18T04:40:19.972Z,7.50
2023-03-18T04:42:49.223Z,7.60
2023-03-18T04:45:17.877Z,7.50
2023-03-18T04:47:46.722Z,7.40
2023-03-18T04:50:15.574Z,7.40
2023-03-18T04:52:45.027Z,7.40
2023-03-18T04:55:16.227Z,7.40
2023-03-18T04:57:44.508Z,7.40
2023-03-18T05:00:21.254Z,7.30
2023-03-18T05:02:49.589Z,7.30
2023-03-18T05:05:19.504Z,7.20
2023-03-18T05:07:47.836Z,7.10
2023-03-18T05:10:16.056Z,6.90
2023-03-18T05:12:44.527Z,6.90
2023-03-18T05:15:15.286Z,6.90
2023-03-18T05:17:43.305Z,6.90
2023-03-18T05:20:13.417Z,6.90
2023-03-18T05:22:42.017Z,6.90
2023-03-18T05:25:11.498Z,6.80
2023-03-18T05:27:39.927Z,6.80
2023-03-18T05:30:09.437Z,6.80
2023-03-18T05:32:38.942Z,6.80
2023-03-18T05:35:07.554Z,6.90
2023-03-18T05:37:35.489Z,6.90
2023-03-18T05:40:04.120Z,6.90
2023-03-18T05:42:32.001Z,6.80
2023-03-18T05:44:59.764Z,6.70
2023-03-18T05:47:27.769Z,6.70
2023-03-18T05:49:56.917Z,6.70
2023-03-18T05:52:24.933Z,6.60
2023-03-18T05:54:54.001Z,6.50
2023-03-18T05:57:22.311Z,6.50
2023-03-18T05:59:50.063Z,6.50
2023-03-18T06:02:18.426Z,6.40
2023-03-18T06:04:46.336Z,6.30
2023-03-18T06:07:15.511Z,6.20
2023-03-18T06:09:43.331Z,6.20
2023-03-18T06:12:11.641Z,6.20
2023-03-18T06:14:39.636Z,6.30
2023-03-18T06:17:07.478Z,6.30
2023-03-18T06:19:35.326Z,6.30
2023-03-18T06:22:03.140Z,6.40
2023-03-18T06:24:32.568Z,6.40
2023-03-18T06:27:00.379Z,6.40
2023-03-18T06:29:28.245Z,6.60
2023-03-18T06:31:56.080Z,6.80
2023-03-18T06:34:23.965Z,7.20
2023-03-18T06:36:52.321Z,7.70
2023-03-18T06:39:20.262Z,8.30
2023-03-18T06:41:49.443Z,8.90
2023-03-18T06:44:17.273Z,8.90
2023-03-18T06:46:45.164Z,8.70
2023-03-18T06:49:12.985Z,8.50
2023-03-18T06:51:40.793Z,8.80
2023-03-18T06:54:09.437Z,9.30
2023-03-18T06:56:40.041Z,10.10
2023-03-18T06:59:10.819Z,11.10
2023-03-18T07:01:38.714Z,11.60
2023-03-18T07:04:08.164Z,12.00
2023-03-18T07:06:36.274Z,12.10
2023-03-18T07:09:04.854Z,11.40
2023-03-18T07:11:32.668Z,10.50
2023-03-18T07:14:00.462Z,10.40
2023-03-18T07:16:30.698Z,10.00
2023-03-18T07:18:59.198Z,10.60
2023-03-18T07:21:27.758Z,9.80
2023-03-18T07:23:56.148Z,9.90
2023-03-18T07:26:24.070Z,10.30
2023-03-18T07:28:51.907Z,10.40
2023-03-18T07:31:20.057Z,9.90
2023-03-18T07:33:49.335Z,9.30
2023-03-18T07:36:17.194Z,9.50
2023-03-18T07:38:44.972Z,10.10
2023-03-18T07:41:13.276Z,10.40
2023-03-18T07:43:41.142Z,11.00
2023-03-18T07:46:09.117Z,11.00
2023-03-18T07:48:36.920Z,10.70
2023-03-18T07:51:06.789Z,10.50
2023-03-18T07:53:35.773Z,10.90
2023-03-18T07:56:03.986Z,11.30
2023-03-18T07:58:32.580Z,11.80
2023-03-18T08:01:00.647Z,12.10
2023-03-18T08:03:35.236Z,12.00
2023-03-18T08:06:03.130Z,12.40
2023-03-18T08:08:33.661Z,12.50
2023-03-18T08:14:49.727Z,12.40
2023-03-18T08:17:17.757Z,12.50
2023-03-18T08:19:46.987Z,12.40
2023-03-18T08:22:15.225Z,12.60
2023-03-18T08:24:45.749Z,13.30
2023-03-18T08:27:13.633Z,13.30
2023-03-18T08:29:41.401Z,13.70
2023-03-18T08:32:10.019Z,14.00
2023-03-18T08:34:38.905Z,14.10
2023-03-18T08:37:07.395Z,14.30
2023-03-18T08:39:35.243Z,14.30
2023-03-18T08:42:05.908Z,14.30
2023-03-18T08:44:33.746Z,14.50
2023-03-18T08:47:01.931Z,14.50
2023-03-18T08:49:29.996Z,14.70
2023-03-18T08:51:57.782Z,15.00
2023-03-18T08:54:25.970Z,14.90
2023-03-18T08:56:55.234Z,14.70
2023-03-18T08:59:24.371Z,14.80
2023-03-18T09:01:53.176Z,14.90
2023-03-18T09:04:21.116Z,14.80
2023-03-18T09:06:50.016Z,14.70
2023-03-18T09:09:18.175Z,14.80
2023-03-18T09:11:47.807Z,14.70
2023-03-18T09:14:15.856Z,15.00
2023-03-18T09:16:46.093Z,15.10
2023-03-18T09:19:13.958Z,14.90
2023-03-18T09:21:41.734Z,15.10
2023-03-18T09:24:10.484Z,14.60
2023-03-18T09:26:39.258Z,15.10
2023-03-18T09:29:07.082Z,15.30
2023-03-18T09:31:34.880Z,15.10
2023-03-18T09:34:05.468Z,15.40
2023-03-18T09:36:33.611Z,15.30
2023-03-18T09:39:02.068Z,15.30
2023-03-18T09:41:43.685Z,15.60
2023-03-18T09:44:18.741Z,15.50
2023-03-18T09:47:05.644Z,15.50
2023-03-18T09:50:08.829Z,15.60
2023-03-18T09:52:40.200Z,15.30
2023-03-18T09:55:19.667Z,15.50
2023-03-18T09:57:51.554Z,15.30
2023-03-18T10:00:24.290Z,15.30
2023-03-18T10:02:56.422Z,15.50
2023-03-18T10:05:31.440Z,15.30
2023-03-18T10:08:04.690Z,15.60
2023-03-18T10:10:37.794Z,15.50
2023-03-18T10:13:15.416Z,15.50
2023-03-18T10:15:46.517Z,15.70
2023-03-18T10:18:19.499Z,15.80
2023-03-18T10:21:04.037Z,15.40
2023-03-18T10:23:43.900Z,15.10
2023-03-18T10:26:17.510Z,15.20
2023-03-18T10:29:03.474Z,15.30
2023-03-18T10:31:46.014Z,15.60
2023-03-18T10:34:17.113Z,15.90
2023-03-18T10:36:51.470Z,16.10
2023-03-18T10:39:21.752Z,15.80
2023-03-18T10:41:51.031Z,15.70
2023-03-18T10:44:23.710Z,15.60
2023-03-18T10:47:00.871Z,15.60
2023-03-18T10:49:32.776Z,15.70
2023-03-18T10:52:07.801Z,16.00
2023-03-18T10:54:40.297Z,15.90
2023-03-18T10:57:09.816Z,16.00
2023-03-18T10:59:38.281Z,15.80
2023-03-18T11:02:12.812Z,16.10
2023-03-18T11:04:48.521Z,16.30
2023-03-18T11:07:20.800Z,16.60
2023-03-18T11:09:48.806Z,16.30
2023-03-18T11:12:19.365Z,16.30
2023-03-18T11:14:49.400Z,16.50
2023-03-18T11:17:23.193Z,16.70
2023-03-18T11:20:01.952Z,16.90
2023-03-18T11:22:32.148Z,16.60
2023-03-18T11:25:06.076Z,16.10
2023-03-18T11:27:40.496Z,16.30
2023-03-18T11:30:24.324Z,16.80
2023-03-18T11:33:03.788Z,17.10
2023-03-18T11:35:37.899Z,16.80
2023-03-18T11:38:07.820Z,16.80
2023-03-18T11:40:35.837Z,16.90
2023-03-18T11:43:13.683Z,16.70
2023-03-18T11:45:50.202Z,16.90
2023-03-18T11:48:23.192Z,16.60
2023-03-18T11:51:03.409Z,16.70
2023-03-18T11:53:50.191Z,16.60
2023-03-18T11:56:25.134Z,16.70
2023-03-18T11:59:26.760Z,16.90
2023-03-18T12:02:04.767Z,16.80
2023-03-18T12:04:50.393Z,16.80
2023-03-18T12:07:30.474Z,17.10
2023-03-18T12:10:12.847Z,17.10
2023-03-18T12:12:53.500Z,17.00
2023-03-18T12:15:33.555Z,17.10
2023-03-18T12:18:10.064Z,16.90
2023-03-18T12:20:50.622Z,17.30
2023-03-18T12:23:45.832Z,17.60
2023-03-18T12:26:18.871Z,17.70
2023-03-18T12:29:18.416Z,17.70
2023-03-18T12:32:06.604Z,18.00
2023-03-18T12:34:53.056Z,18.20
2023-03-18T12:37:32.137Z,17.90
2023-03-18T12:40:18.293Z,17.80
2023-03-18T12:42:59.654Z,17.70
2023-03-18T12:45:34.498Z,17.80
2023-03-18T12:48:11.071Z,17.80
2023-03-18T12:50:42.386Z,17.80
2023-03-18T12:53:16.590Z,17.80
2023-03-18T12:55:48.130Z,17.60
2023-03-18T12:58:20.302Z,17.40
2023-03-18T13:00:54.612Z,17.40
2023-03-18T13:03:32.197Z,17.70
2023-03-18T13:06:05.105Z,18.20
2023-03-18T13:09:00.959Z,18.10
2023-03-18T13:11:48.327Z,18.30
2023-03-18T13:14:25.765Z,18.70
2023-03-18T13:16:56.143Z,18.70
2023-03-18T13:19:24.054Z,18.20
2023-03-18T13:22:04.167Z,18.00
2023-03-18T13:24:56.608Z,18.40
2023-03-18T13:27:48.512Z,18.60
2023-03-18T13:30:29.893Z,18.30
2023-03-18T13:33:34.138Z,18.30
2023-03-18T13:36:53.400Z,18.20
2023-03-18T13:39:31.686Z,17.90
2023-03-18T13:42:22.991Z,17.90
2023-03-18T13:44:58.774Z,17.90
2023-03-18T13:47:31.524Z,18.00
2023-03-18T13:50:02.148Z,18.00
2023-03-18T13:52:36.177Z,18.10
2023-03-18T13:55:08.253Z,18.30
2023-03-18T13:57:47.759Z,18.50
2023-03-18T14:00:30.494Z,18.30
2023-03-18T14:03:30.480Z,18.20
2023-03-18T14:06:22.547Z,18.10
2023-03-18T14:08:52.118Z,18.40
2023-03-18T14:11:46.837Z,18.70
2023-03-18T14:14:42.337Z,18.60
2023-03-18T14:17:19.666Z,18.50
2023-03-18T14:19:49.094Z,18.60
2023-03-18T14:22:22.876Z,18.60
2023-03-18T14:25:11.832Z,18.50
2023-03-18T14:27:48.118Z,18.20
2023-03-18T14:30:52.527Z,18.30
2023-03-18T14:33:48.302Z,18.40
2023-03-18T14:36:17.498Z,18.20
2023-03-18T14:38:50.001Z,18.20
2023-03-18T14:41:25.641Z,18.20
2023-03-18T14:44:17.224Z,18.20
2023-03-18T14:46:50.297Z,18.40
2023-03-18T14:49:36.944Z,18.30
2023-03-18T14:52:14.419Z,18.00
2023-03-18T14:54:46.068Z,18.00
2023-03-18T14:57:14.244Z,18.10
2023-03-18T14:59:42.810Z,18.30
2023-03-18T15:02:23.155Z,18.10
2023-03-18T15:04:54.316Z,18.00
2023-03-18T15:07:32.277Z,17.90
2023-03-18T15:10:04.397Z,18.00
2023-03-18T15:12:32.210Z,18.00
2023-03-18T15:15:00.082Z,18.20
2023-03-18T15:17:28.370Z,18.20
2023-03-18T15:20:00.267Z,18.20
2023-03-18T15:22:32.334Z,18.10
2023-03-18T15:25:02.581Z,17.50
2023-03-18T15:27:33.046Z,17.20
2023-03-18T15:30:02.387Z,17.00
2023-03-18T15:32:32.424Z,16.90
2023-03-18T15:35:13.673Z,16.80
2023-03-18T15:37:44.503Z,16.70
2023-03-18T15:40:30.980Z,16.80
2023-03-18T15:43:04.083Z,16.90
2023-03-18T15:45:32.964Z,16.90
2023-03-18T15:48:09.099Z,16.90
2023-03-18T15:50:37.322Z,16.90
2023-03-18T15:53:19.020Z,16.90
2023-03-18T15:55:51.474Z,16.80
2023-03-18T15:58:25.825Z,16.70
2023-03-18T16:00:55.267Z,16.50
2023-03-18T16:03:25.027Z,16.50
2023-03-18T16:05:54.043Z,16.40
2023-03-18T16:08:24.230Z,16.30
2023-03-18T16:10:55.105Z,16.30
2023-03-18T16:13:25.629Z,16.20
2023-03-18T16:15:54.089Z,16.20
2023-03-18T16:18:22.297Z,16.20
2023-03-18T16:20:51.225Z,16.10
2023-03-18T16:23:20.237Z,16.10
2023-03-18T16:25:51.080Z,16.00
2023-03-18T16:28:22.036Z,16.00
2023-03-18T16:30:52.118Z,15.90
2023-03-18T16:33:21.617Z,15.90
2023-03-18T16:35:55.534Z,15.80
2023-03-18T16:38:23.948Z,15.80
2023-03-18T16:40:54.825Z,15.80
2023-03-18T16:43:24.656Z,15.80
2023-03-18T16:45:52.735Z,15.70
2023-03-18T16:48:22.665Z,15.50
2023-03-18T16:50:52.404Z,15.40
2023-03-18T16:53:22.484Z,15.20
2023-03-18T16:55:52.617Z,15.10
2023-03-18T16:58:26.544Z,15.00
2023-03-18T17:00:54.852Z,14.90
2023-03-18T17:03:22.665Z,14.80
2023-03-18T17:05:51.905Z,14.70
2023-03-18T17:08:20.763Z,14.50
2023-03-18T17:10:52.471Z,14.30
2023-03-18T17:13:24.575Z,14.10
2023-03-18T17:15:52.709Z,14.00
2023-03-18T17:18:22.785Z,13.80
2023-03-18T17:20:51.548Z,13.60
2023-03-18T17:23:21.536Z,13.60
2023-03-18T17:25:52.173Z,13.50
2023-03-18T17:28:34.463Z,13.30
2023-03-18T17:31:03.013Z,13.20
2023-03-18T17:33:32.821Z,13.00
2023-03-18T17:36:01.894Z,12.90
2023-03-18T17:38:32.198Z,12.70
2023-03-18T17:41:01.233Z,12.60
2023-03-18T17:43:30.591Z,12.50
2023-03-18T17:46:01.504Z,12.30
2023-03-18T17:48:30.847Z,12.10
2023-03-18T17:51:00.406Z,12.00
2023-03-18T17:53:33.089Z,11.90
2023-03-18T17:56:01.815Z,11.80
2023-03-18T17:58:31.199Z,11.70
2023-03-18T18:01:06.653Z,11.60
2023-03-18T18:03:36.153Z,11.50
2023-03-18T18:06:04.557Z,11.30
2023-03-18T18:08:32.637Z,11.20
2023-03-18T18:11:05.874Z,11.10
2023-03-18T18:13:33.669Z,11.00
2023-03-18T18:16:02.977Z,10.90
2023-03-18T18:18:31.022Z,10.90
2023-03-18T18:21:01.446Z,10.80
2023-03-18T18:23:31.571Z,10.80
2023-03-18T18:26:01.499Z,10.70
2023-03-18T18:28:33.001Z,10.60
2023-03-18T18:31:03.639Z,10.60
2023-03-18T18:33:32.812Z,10.50
2023-03-18T18:36:01.102Z,10.40
2023-03-18T18:38:29.785Z,10.30
2023-03-18T18:40:58.990Z,10.30
2023-03-18T18:43:27.434Z,10.20
2023-03-18T18:45:57.534Z,10.10
2023-03-18T18:48:30.755Z,10.10
2023-03-18T18:50:59.407Z,10.00
2023-03-18T18:53:29.377Z,9.90
2023-03-18T18:55:59.557Z,9.80
2023-03-18T18:58:29.527Z,9.80
2023-03-18T19:00:58.375Z,9.70
2023-03-18T19:03:31.636Z,9.60
2023-03-18T19:06:01.392Z,9.50
2023-03-18T19:08:31.817Z,9.50
2023-03-18T19:11:02.157Z,9.40
2023-03-18T19:13:32.037Z,9.40
2023-03-18T19:16:01.969Z,9.40
2023-03-18T19:18:36.755Z,9.30
2023-03-18T19:21:04.809Z,9.30
2023-03-18T19:23:34.785Z,9.20
2023-03-18T19:26:04.117Z,9.10
2023-03-18T19:28:58.348Z,9.10
2023-03-18T19:31:30.608Z,9.10
2023-03-18T19:34:00.555Z,9.20
2023-03-18T19:36:30.906Z,9.20
2023-03-18T19:39:00.485Z,9.20
2023-03-18T19:41:29.002Z,9.20
2023-03-18T19:44:01.852Z,9.20
2023-03-18T19:46:36.532Z,9.20
2023-03-18T19:49:13.168Z,9.20
2023-03-18T19:51:41.488Z,9.20
2023-03-18T19:54:23.576Z,9.10
2023-03-18T19:56:52.465Z,9.00
2023-03-18T19:59:22.805Z,9.00
2023-03-18T20:01:51.498Z,9.00
2023-03-18T20:04:24.433Z,9.00
2023-03-18T20:06:52.373Z,9.00
2023-03-18T20:09:20.439Z,8.90
2023-03-18T20:11:51.190Z,8.90
2023-03-18T20:14:25.191Z,8.90
2023-03-18T20:16:53.547Z,8.90
2023-03-18T20:19:23.055Z,8.80
2023-03-18T20:21:51.380Z,8.70
2023-03-18T20:24:25.985Z,8.60
2023-03-18T20:26:53.783Z,8.60
2023-03-18T20:29:25.231Z,8.50
2023-03-18T20:31:53.390Z,8.50
2023-03-18T20:34:23.013Z,8.40
2023-03-18T20:36:50.882Z,8.30
2023-03-18T20:39:21.809Z,8.20
2023-03-18T20:41:50.463Z,8.10
2023-03-18T20:44:18.413Z,8.00
2023-03-18T20:46:46.230Z,7.90
2023-03-18T20:49:14.824Z,7.90
2023-03-18T20:51:44.297Z,7.90
2023-03-18T20:54:18.786Z,7.90
2023-03-18T20:56:47.478Z,8.00
2023-03-18T20:59:15.326Z,8.00
2023-03-18T21:01:43.401Z,7.90
2023-03-18T21:04:13.509Z,7.80
2023-03-18T21:06:43.431Z,7.80
2023-03-18T21:09:13.227Z,7.70
2023-03-18T21:11:41.490Z,7.70
2023-03-18T21:14:15.331Z,7.60
2023-03-18T21:16:43.371Z,7.60
2023-03-18T21:19:12.522Z,7.50
2023-03-18T21:21:41.418Z,7.40
2023-03-18T21:24:26.067Z,7.40
2023-03-18T21:27:04.173Z,7.40
2023-03-18T21:29:32.759Z,7.30
2023-03-18T21:32:00.974Z,7.20
2023-03-18T21:34:28.918Z,7.10
2023-03-18T21:36:57.295Z,7.10
2023-03-18T21:39:26.445Z,7.20
2023-03-18T21:41:54.324Z,7.30
2023-03-18T21:44:22.854Z,7.40
2023-03-18T21:46:50.645Z,7.40
2023-03-18T21:49:18.429Z,7.30
2023-03-18T21:51:46.608Z,7.30
2023-03-18T21:54:18.716Z,7.20
2023-03-18T21:56:47.867Z,7.10
2023-03-18T21:59:15.943Z,7.10
2023-03-18T22:01:43.877Z,7.10
2023-03-18T22:04:12.825Z,7.10
2023-03-18T22:06:40.688Z,7.10
2023-03-18T22:09:08.674Z,7.00
2023-03-18T22:11:36.524Z,7.00
2023-03-18T22:14:05.632Z,7.00
2023-03-18T22:16:33.505Z,6.90
2023-03-18T22:19:01.379Z,6.90
2023-03-18T22:21:29.572Z,6.90
2023-03-18T22:23:58.149Z,6.90
2023-03-18T22:26:26.143Z,6.80
2023-03-18T22:28:53.934Z,6.70
2023-03-18T22:31:26.250Z,6.80
2023-03-18T22:33:54.169Z,6.90
2023-03-18T22:36:23.779Z,6.90
2023-03-18T22:38:51.941Z,7.00
2023-03-18T22:41:22.272Z,7.10
2023-03-18T22:43:50.920Z,7.10
2023-03-18T22:46:18.858Z,7.10
2023-03-18T22:48:48.068Z,7.00
2023-03-18T22:51:24.038Z,6.90
2023-03-18T22:53:54.076Z,7.00
2023-03-18T22:56:23.610Z,7.00
2023-03-18T22:58:51.646Z,7.00
2023-03-18T23:01:21.520Z,7.10
2023-03-18T23:03:50.673Z,7.00
2023-03-18T23:06:21.210Z,7.10
2023-03-18T23:08:49.177Z,7.10
2023-03-18T23:11:17.612Z,7.10
2023-03-18T23:13:48.072Z,7.10
2023-03-18T23:16:18.701Z,7.10
2023-03-18T23:18:46.698Z,7.00
2023-03-18T23:21:18.794Z,7.00
2023-03-18T23:23:46.813Z,7.00
2023-03-18T23:26:15.127Z,7.00
2023-03-18T23:28:45.283Z,7.00
2023-03-18T23:31:13.538Z,6.90
2023-03-18T23:33:41.372Z,6.90
2023-03-18T23:36:09.777Z,6.90
2023-03-18T23:38:39.024Z,6.90
2023-03-18T23:41:07.173Z,6.80
2023-03-18T23:43:35.000Z,6.80
2023-03-18T23:46:03.731Z,6.90
2023-03-18T23:48:31.895Z,6.80
2023-03-18T23:50:59.861Z,6.80
2023-03-18T23:53:27.722Z,6.90
2023-03-18T23:55:56.920Z,7.00
2023-03-18T23:58:24.765Z,7.00
